ADDS METAR Data INFO
IDs: Format: Raw Decoded Include TAF

Data at: 0914 UTC 25 Feb 2018

KBEA 250855Z AUTO 16007KT 7SM -DZ OVC006 21/21 A2987 RMK AO2 T02130210
KBEA 250835Z AUTO 17007KT 7SM OVC006 21/21 A2988 RMK AO2 T02130208
KBEA 250815Z AUTO 16003KT 7SM OVC006 21/21 A2988 RMK AO2 T02120206
KBEA 250755Z AUTO 13009G17KT 100V170 7SM -DZ BKN006 21/21 A2987 RMK AO2 T02130206
KBEA 250735Z AUTO 15003KT 7SM OVC006 21/21 A2989 RMK AO2 T02100205
KBEA 250715Z AUTO 15007KT 7SM -RA SCT006 BKN110 21/21 A2988 RMK AO2 T02100205
KBEA 250655Z AUTO 12016G20KT 7SM -RA BKN110 21/20 A2986 RMK AO2 T02070203
KBEA 250635Z AUTO 12011KT 7SM -RA SCT080 OVC110 21/20 A2990 RMK AO2 LTG DSNT N T02060202
KBEA 250615Z AUTO 09007KT 7SM -RA SCT010 BKN110 21/20 A2992 RMK AO2 T02070200
KBEA 250555Z AUTO 07005KT 7SM BKN010 21/20 A2992 RMK AO2 T02070200 10249 20205 402800205
KBEA 250535Z AUTO 06005KT 7SM SCT010 21/20 A2991 RMK AO2 T02050198
KBEA 250515Z AUTO 06004KT 7SM SCT047 21/20 A2993 RMK AO2 T02060198
KBEA 250455Z AUTO 09005KT 7SM BKN047 21/20 A2992 RMK AO2 T02080200
KBEA 250435Z AUTO 01003KT 7SM SCT047 21/20 A2993 RMK AO2 T02070199
KBEA 250415Z AUTO 00000KT 7SM BKN047 21/20 A2992 RMK AO2 T02070199
KBEA 250355Z AUTO 05004KT 7SM BKN047 21/20 A2991 RMK AO2 T02060198
KBEA 250335Z AUTO 07004KT 7SM CLR 21/20 A2989 RMK AO2 T02050197
KBEA 250315Z AUTO 06003KT 7SM CLR 21/20 A2989 RMK AO2 T02070198
KBEA 250255Z AUTO 09003KT 7SM CLR 21/20 A2988 RMK AO2 T02100200
KBEA 250235Z AUTO 00000KT 7SM CLR 21/20 A2987 RMK AO2 T02110200
KBEA 250215Z AUTO 09003KT 7SM CLR 21/20 A2985 RMK AO2 T02130201
KBEA 250155Z AUTO 10006KT 7SM CLR 22/20 A2983 RMK AO2 T02160203
KBEA 250135Z AUTO 11006KT 10SM CLR 22/20 A2983 RMK AO2 T02180202
KBEA 250115Z AUTO 11006KT 10SM CLR 22/20 A2983 RMK AO2 T02230203
KBEA 250055Z AUTO 12007KT 10SM CLR 23/20 A2983 RMK AO2 T02300203
KBEA 250035Z AUTO 12006KT 10SM CLR 24/21 A2982 RMK AO2 T02360206
KBEA 250015Z AUTO 10007KT 10SM CLR 24/21 A2982 RMK AO2 T02420209
KBEA 242355Z AUTO 12006KT 10SM CLR 25/21 A2984 RMK AO2 T02500210 10280 20248
KBEA 242335Z AUTO 12008KT 10SM CLR 25/21 A2983 RMK AO2 T02530210
KBEA 242315Z AUTO 12008KT 10SM CLR 26/21 A2982 RMK AO2 T02590211
KBEA 242255Z AUTO 12007KT 10SM CLR 26/21 A2982 RMK AO2 T02570211
KBEA 242235Z AUTO 10008KT 10SM SCT040 SCT050 SCT065 26/21 A2982 RMK AO2 T02550211
KBEA 242215Z AUTO 10010KT 10SM BKN042 BKN050 OVC065 26/21 A2982 RMK AO2 T02620212
KBEA 242155Z AUTO 11007KT 10SM OVC042 27/21 A2982 RMK AO2 T02680211
KBEA 242135Z AUTO 14008KT 10SM BKN041 28/21 A2981 RMK AO2 T02760207
KBEA 242115Z AUTO 14010G15KT 10SM OVC040 27/21 A2980 RMK AO2 T02710211
KBEA 242055Z AUTO 14007KT 10SM SCT034 BKN044 OVC050 28/21 A2982 RMK AO2 T02760207
KBEA 242035Z AUTO 18008KT 10SM BKN044 BKN050 28/21 A2982 RMK AO2 T02760208
KBEA 242015Z AUTO 18010KT 10SM SCT042 BKN050 28/21 A2982 RMK AO2 T02770208
KBEA 241955Z AUTO 15013KT 10SM SCT027 SCT033 BKN047 28/21 A2982 RMK AO2 T02750210
KBEA 241935Z AUTO 16012G19KT 10SM SCT027 BKN032 OVC045 27/21 A2984 RMK AO2 T02670205
KBEA 241915Z AUTO 15012G19KT 10SM BKN027 BKN034 OVC047 26/21 A2985 RMK AO2 T02640206
KBEA 241855Z AUTO 16014G19KT 10SM BKN024 OVC033 26/21 A2986 RMK AO2 T02600206
KBEA 241835Z AUTO 17013KT 10SM BKN022 OVC031 26/21 A2987 RMK AO2 T02550205
KBEA 241815Z AUTO 17015KT 10SM SCT020 OVC033 25/20 A2988 RMK AO2 T02510203
KBEA 241755Z AUTO 16015G21KT 10SM SCT020 BKN026 BKN038 25/20 A2988 RMK AO2 T02500201 10250 20207
KBEA 241735Z AUTO 16019G25KT 10SM BKN020 OVC024 24/20 A2988 RMK AO2 T02430200
KBEA 241715Z AUTO 17017G24KT 10SM OVC017 24/20 A2990 RMK AO2 T02420201
KBEA 241655Z AUTO 16019G24KT 10SM OVC017 25/21 A2990 RMK AO2 T02460205
KBEA 241635Z AUTO 16018G23KT 10SM BKN015 BKN022 OVC028 24/20 A2990 RMK AO2 T02370202
KBEA 241615Z AUTO 17018KT 10SM BKN015 BKN023 OVC028 23/20 A2990 RMK AO2 T02340201
KBEA 241555Z AUTO 17016G25KT 10SM BKN015 OVC023 24/20 A2990 RMK AO2 T02350203
KBEA 241535Z AUTO 17017G24KT 10SM OVC015 23/20 A2991 RMK AO2 T02270200
KBEA 241515Z AUTO 18018G24KT 10SM BKN015 BKN022 23/20 A2991 RMK AO2 T02340200
KBEA 241455Z AUTO 16016G21KT 10SM SCT013 SCT023 23/20 A2990 RMK AO2 T02340202
KBEA 241435Z AUTO 15014G20KT 10SM SCT009 SCT022 23/20 A2990 RMK AO2 T02270203
KBEA 241415Z AUTO 15011G15KT 7SM BKN009 21/20 A2990 RMK AO2 T02140201
KBEA 241355Z AUTO 14006KT 7SM OVC011 21/20 A2990 RMK AO2 T02080197
KBEA 241335Z AUTO 13008KT 7SM OVC011 21/20 A2989 RMK AO2 T02100199
KBEA 241315Z AUTO 14008KT 7SM OVC014 21/20 A2991 RMK AO2 T02120200
KBEA 241255Z AUTO 16007KT 10SM OVC016 21/20 A2992 RMK AO2 LTG DSNT N T02120200
KBEA 241235Z AUTO 17006KT 10SM OVC016 21/20 A2992 RMK AO2 LTG DSNT W AND NW T02110200
KBEA 241215Z AUTO 16007KT 7SM BKN014 OVC021 21/20 A2991 RMK AO2 T02100200
KBEA 241155Z AUTO 16005KT 7SM SCT009 OVC015 21/20 A2992 RMK AO2 T02070200 10217 20207
KBEA 241135Z AUTO 15005KT 7SM BKN009 OVC015 21/20 A2990 RMK AO2 LTG DSNT NW T02070200
KBEA 241115Z AUTO 16006KT 7SM OVC009 21/20 A2990 RMK AO2 T02100200
KBEA 241055Z AUTO 16010G15KT 7SM OVC009 21/20 A2990 RMK AO2 T02080200
KBEA 241035Z AUTO 16008KT 7SM OVC009 21/20 A2990 RMK AO2 T02080200
KBEA 241015Z AUTO 16010KT 10SM OVC009 21/20 A2989 RMK AO2 T02100200
KBEA 240955Z AUTO 16012KT 10SM OVC009 21/20 A2990 RMK AO2 T02110200
KBEA 240935Z AUTO 16012G16KT 10SM OVC009 21/20 A2990 RMK AO2 T02120201
KBEA 240915Z AUTO 16013KT 10SM OVC009 22/20 A2991 RMK AO2 T02150202
KBEA 240855Z AUTO 16013G19KT 7SM BKN009 BKN016 OVC022 22/20 A2991 RMK AO2 T02150203
KBEA 240835Z AUTO 16014G19KT 7SM SCT009 OVC022 22/20 A2992 RMK AO2 T02150203
KBEA 240815Z AUTO 16015G20KT 7SM SCT011 OVC024 22/21 A2993 RMK AO2 T02160205
KBEA 240755Z AUTO 17015G18KT 7SM BKN011 OVC020 22/21 A2995 RMK AO2 T02160205
KBEA 240735Z AUTO 18014G20KT 7SM OVC009 22/21 A2996 RMK AO2 T02170206
KBEA 240715Z AUTO 18012G17KT 7SM OVC007 22/21 A2996 RMK AO2 T02170207
KBEA 240655Z AUTO 16014G19KT 7SM OVC007 22/21 A2995 RMK AO2 T02170208
KBEA 240635Z AUTO 16016G23KT 7SM OVC007 22/21 A2995 RMK AO2 T02160207
KBEA 240615Z AUTO 16014G19KT 7SM OVC007 22/21 A2996 RMK AO2 T02150206
KBEA 240555Z AUTO 15012G18KT 7SM OVC007 22/21 A2996 RMK AO2 T02150206 10229 20208 402580091
KBEA 240535Z AUTO 15013KT 7SM OVC007 22/21 A2996 RMK AO2 T02150206
KBEA 240515Z AUTO 15012G17KT 10SM OVC007 22/21 A2996 RMK AO2 T02150205
KBEA 240455Z AUTO 14010G17KT 10SM OVC007 22/21 A2997 RMK AO2 T02150205
KBEA 240435Z AUTO 14011G16KT 10SM OVC007 21/21 A2997 RMK AO2 T02120205
KBEA 240415Z AUTO 15011G14KT 10SM OVC007 21/20 A2998 RMK AO2 T02100203
KBEA 240355Z AUTO 15010KT 10SM OVC009 21/20 A2999 RMK AO2 T02090200
KBEA 240335Z AUTO 15012G17KT 10SM OVC009 21/20 A2998 RMK AO2 T02110201
KBEA 240315Z AUTO 15012G21KT 10SM OVC009 21/20 A2999 RMK AO2 T02140202
KBEA 240255Z AUTO 15015G20KT 10SM OVC009 22/20 A2999 RMK AO2 T02150202
KBEA 240235Z AUTO 14012G19KT 10SM OVC011 22/20 A2999 RMK AO2 T02150201
KBEA 240215Z AUTO 14009KT 10SM OVC011 22/20 A2998 RMK AO2 T02150200
KBEA 240155Z AUTO 13012G15KT 10SM OVC013 22/20 A2998 RMK AO2 T02150199
KBEA 240135Z AUTO 13010G19KT 10SM OVC015 22/20 A2998 RMK AO2 T02150197
KBEA 240115Z AUTO 13011G14KT 10SM BKN015 OVC050 22/20 A2998 RMK AO2 T02150195
KBEA 240055Z AUTO 13011G15KT 10SM OVC050 22/20 A2998 RMK AO2 T02190195
KBEA 240035Z AUTO 13011G17KT 10SM SCT044 BKN050 22/19 A2998 RMK AO2 T02220193
KBEA 240015Z AUTO 14016G19KT 10SM SCT021 BKN040 BKN050 23/19 A2998 RMK AO2 T02260192
KBEA 232355Z AUTO 14013G18KT 10SM SCT021 BKN040 23/19 A2998 RMK AO2 T02280190 10258 20202
KBEA 232335Z AUTO 14012G19KT 10SM SCT021 BKN040 BKN047 23/19 A2998 RMK AO2 T02310189
KBEA 232315Z AUTO 14015G21KT 10SM BKN044 23/19 A2998 RMK AO2 T02340191
KBEA 232255Z AUTO 13010G20KT 10SM SCT023 BKN042 24/19 A2998 RMK AO2 T02380190
KBEA 232235Z AUTO 13015KT 10SM SCT032 BKN040 24/19 A2998 RMK AO2 T02430191
KBEA 232215Z AUTO 14017G21KT 10SM SCT029 OVC035 24/19 A2999 RMK AO2 T02410191
KBEA 232155Z AUTO 13016G20KT 10SM BKN027 OVC033 25/19 A3000 RMK AO2 T02460192
KBEA 232135Z AUTO 14013G19KT 10SM BKN029 BKN037 BKN045 25/19 A3000 RMK AO2 T02520190
KBEA 232115Z AUTO 14013G19KT 10SM BKN025 BKN031 BKN037 25/19 A3001 RMK AO2 T02510190